Time;durP1;ratioP1;P1;durP2;ratioP2;P2;SDS_P1;SDS_P2;PMS_P1;PMS_P2;Temp;Humidity;BMP_temperature;BMP_pressure;BME280_temperature;BME280_humidity;BME280_pressure;Samples;Min_cycle;Max_cycle;Signal;HPM_P1;HPM_P2
2023/12/21 00:00:56;;;;;;;;;;;;;;;8.11;100.00;100739.75;5015581;28;19948;-64
2023/12/21 00:03:21;;;;;;;;;;;;;;;8.12;100.00;100746.69;5018852;28;19921;-64
2023/12/21 00:05:47;;;;;;;;;;;;;;;8.11;100.00;100728.34;5012000;28;19932;-64
2023/12/21 00:08:12;;;;;;;;;;;;;;;8.12;100.00;100707.03;5010605;28;20310;-65
2023/12/21 00:10:37;;;;;;;;;;;;;;;8.18;100.00;100716.97;5012625;28;20549;-65
2023/12/21 00:13:02;;;;;;;;;;;;;;;8.15;100.00;100705.88;5016795;28;19929;-64
2023/12/21 00:15:28;;;;;;;;;;;;;;;8.16;100.00;100696.94;5018469;28;19925;-65
2023/12/21 00:17:53;;;;;;;;;;;;;;;8.13;100.00;100681.41;5016142;28;20451;-65
2023/12/21 00:20:20;;;;;;;;;;;;;;;8.15;100.00;100695.28;5018261;28;19933;-64
2023/12/21 00:22:45;;;;;;;;;;;;;;;8.14;100.00;100691.00;5013135;28;19959;-65
2023/12/21 00:25:10;;;;;;;;;;;;;;;8.08;100.00;100687.97;5013851;28;20012;-64
2023/12/21 00:27:36;;;;;;;;;;;;;;;8.03;100.00;100663.00;5014657;28;19956;-65
2023/12/21 00:30:01;;;;;;;;;;;;;;;8.01;100.00;100667.59;5012853;28;19922;-65
2023/12/21 00:32:26;;;;;;;;;;;;;;;8.02;100.00;100656.03;5011217;28;19957;-64
2023/12/21 00:34:51;;;;;;;;;;;;;;;8.01;100.00;100670.25;5018129;28;19948;-64
2023/12/21 00:37:17;;;;;;;;;;;;;;;8.05;100.00;100669.78;5014718;28;19925;-64
2023/12/21 00:39:42;;;;;;;;;;;;;;;8.04;100.00;100672.56;5013737;28;19921;-65
2023/12/21 00:42:07;;;;;;;;;;;;;;;8.06;100.00;100665.31;5013017;28;19921;-64
2023/12/21 00:44:32;;;;;;;;;;;;;;;8.04;100.00;100654.06;5013972;28;19921;-64
2023/12/21 00:46:58;;;;;;;;;;;;;;;8.02;100.00;100638.34;5009410;28;19928;-64
2023/12/21 00:49:23;;;;;;;;;;;;;;;8.08;100.00;100644.81;5016740;28;19975;-64
2023/12/21 00:51:48;;;;;;;;;;;;;;;8.02;100.00;100624.31;5017435;28;19930;-64
2023/12/21 00:54:13;;;;;;;;;;;;;;;8.06;100.00;100623.00;5014335;28;19917;-64
2023/12/21 00:56:38;;;;;;;;;;;;;;;8.07;100.00;100619.38;5020200;28;19924;-64
2023/12/21 00:59:04;;;;;;;;;;;;;;;8.03;100.00;100610.91;5011466;28;19926;-64
2023/12/21 01:01:29;;;;;;;;;;;;;;;8.05;100.00;100624.81;5017608;28;19921;-64
2023/12/21 01:03:54;;;;;;;;;;;;;;;8.06;100.00;100600.03;5012465;28;20713;-64
2023/12/21 01:06:19;;;;;;;;;;;;;;;8.03;100.00;100599.53;5019668;28;19936;-64
2023/12/21 01:08:45;;;;;;;;;;;;;;;8.05;100.00;100593.06;5016080;28;20034;-64
2023/12/21 01:11:10;;;;;;;;;;;;;;;8.13;100.00;100597.59;5013989;28;19967;-64
2023/12/21 01:13:36;;;;;;;;;;;;;;;8.06;100.00;100591.25;5017118;28;19921;-64
2023/12/21 01:16:01;;;;;;;;;;;;;;;8.05;100.00;100560.50;5013195;28;19921;-64
2023/12/21 01:18:26;;;;;;;;;;;;;;;8.04;100.00;100578.19;5018599;28;19982;-67
2023/12/21 01:20:51;;;;;;;;;;;;;;;8.02;100.00;100576.72;5012807;28;19921;-64
2023/12/21 01:23:17;;;;;;;;;;;;;;;8.06;100.00;100578.03;5020680;28;19953;-64
2023/12/21 01:25:42;;;;;;;;;;;;;;;8.09;100.00;100585.66;5018574;28;19921;-64
2023/12/21 01:28:07;;;;;;;;;;;;;;;8.10;100.00;100568.00;5015495;28;19948;-64
2023/12/21 01:30:32;;;;;;;;;;;;;;;8.08;100.00;100566.31;5016780;28;19964;-64
2023/12/21 01:32:58;;;;;;;;;;;;;;;8.10;100.00;100557.41;5020311;28;21254;-64
2023/12/21 01:35:23;;;;;;;;;;;;;;;8.12;100.00;100550.16;5015856;28;20386;-64
2023/12/21 01:37:48;;;;;;;;;;;;;;;8.11;100.00;100546.66;5014671;28;19932;-64
2023/12/21 01:40:14;;;;;;;;;;;;;;;8.14;100.00;100551.63;5015099;28;19924;-64
2023/12/21 01:42:39;;;;;;;;;;;;;;;8.18;100.00;100554.78;5015061;28;19922;-64
2023/12/21 01:45:05;;;;;;;;;;;;;;;8.15;100.00;100548.00;5014288;28;19960;-64
2023/12/21 01:47:31;;;;;;;;;;;;;;;8.20;100.00;100552.81;5016560;28;19921;-64
2023/12/21 01:49:56;;;;;;;;;;;;;;;8.24;100.00;100538.25;5016544;28;19927;-64
2023/12/21 01:52:21;;;;;;;;;;;;;;;8.26;100.00;100529.16;5011234;28;19921;-64
2023/12/21 01:54:46;;;;;;;;;;;;;;;8.23;100.00;100534.78;5015082;28;20297;-64
2023/12/21 01:57:12;;;;;;;;;;;;;;;8.31;100.00;100537.44;5022913;28;19921;-64
2023/12/21 01:59:38;;;;;;;;;;;;;;;8.30;100.00;100543.72;5017563;28;19932;-64
2023/12/21 02:02:03;;;;;;;;;;;;;;;8.31;100.00;100534.78;5018332;28;19927;-64
2023/12/21 02:04:28;;;;;;;;;;;;;;;8.33;100.00;100537.25;5021971;28;19921;-64
2023/12/21 02:06:54;;;;;;;;;;;;;;;8.36;100.00;100542.25;5012553;28;20024;-64
2023/12/21 02:09:19;;;;;;;;;;;;;;;8.39;100.00;100549.91;5020309;28;19917;-64
2023/12/21 02:11:45;;;;;;;;;;;;;;;8.33;100.00;100551.34;5012520;28;20343;-64
2023/12/21 02:14:11;;;;;;;;;;;;;;;8.28;100.00;100544.88;5014300;28;19927;-64
2023/12/21 02:16:43;;;;;;;;;;;;;;;8.27;100.00;100524.69;5021397;28;20728;-64
2023/12/21 02:19:10;;;;;;;;;;;;;;;8.28;100.00;100516.59;5018514;28;19925;-64
2023/12/21 02:21:35;;;;;;;;;;;;;;;8.30;100.00;100532.31;5021640;28;19917;-64
2023/12/21 02:24:01;;;;;;;;;;;;;;;8.29;100.00;100526.19;5014552;28;19921;-64
2023/12/21 02:26:26;;;;;;;;;;;;;;;8.31;100.00;100518.91;5010961;28;19921;-64
2023/12/21 02:28:51;;;;;;;;;;;;;;;8.37;100.00;100509.53;5016103;28;20409;-64
2023/12/21 02:31:16;;;;;;;;;;;;;;;8.27;100.00;100485.03;5013951;28;20024;-64
2023/12/21 02:33:42;;;;;;;;;;;;;;;8.26;100.00;100486.84;5017093;28;19921;-65
2023/12/21 02:36:07;;;;;;;;;;;;;;;8.27;100.00;100491.13;5013316;28;19921;-64
2023/12/21 02:38:32;;;;;;;;;;;;;;;8.27;100.00;100491.13;5021332;28;19925;-65
2023/12/21 02:40:59;;;;;;;;;;;;;;;8.29;100.00;100477.75;5017653;28;19925;-65
2023/12/21 02:43:24;;;;;;;;;;;;;;;8.25;100.00;100479.06;5011193;28;19929;-64
2023/12/21 02:45:49;;;;;;;;;;;;;;;8.23;100.00;100471.28;5007146;28;19925;-64
2023/12/21 02:48:14;;;;;;;;;;;;;;;8.26;100.00;100476.25;5016381;28;20018;-65
2023/12/21 02:50:40;;;;;;;;;;;;;;;8.22;100.00;100476.75;5023556;28;20382;-64
2023/12/21 02:53:05;;;;;;;;;;;;;;;8.27;100.00;100475.25;5013042;28;19925;-65
2023/12/21 02:55:30;;;;;;;;;;;;;;;8.21;100.00;100460.06;5019202;28;19928;-65
2023/12/21 02:57:56;;;;;;;;;;;;;;;8.30;100.00;100472.28;5014799;28;19991;-65
2023/12/21 03:00:21;;;;;;;;;;;;;;;8.25;100.00;100456.09;5016689;28;19928;-65
2023/12/21 03:02:46;;;;;;;;;;;;;;;8.28;100.00;100465.50;5012806;28;19965;-65
2023/12/21 03:05:11;;;;;;;;;;;;;;;8.28;100.00;100462.84;5010597;28;20379;-65
2023/12/21 03:07:36;;;;;;;;;;;;;;;8.30;100.00;100451.13;5026341;28;20407;-65
2023/12/21 03:10:02;;;;;;;;;;;;;;;8.28;100.00;100429.28;5009753;28;19995;-65
2023/12/21 03:12:27;;;;;;;;;;;;;;;8.25;100.00;100429.63;5017751;28;19917;-65
2023/12/21 03:14:52;;;;;;;;;;;;;;;8.25;100.00;100416.41;5009897;28;19979;-65
2023/12/21 03:17:18;;;;;;;;;;;;;;;8.25;100.00;100395.25;5015252;28;19925;-65
2023/12/21 03:19:43;;;;;;;;;;;;;;;8.21;100.00;100370.13;5016529;28;19925;-65
2023/12/21 03:22:08;;;;;;;;;;;;;;;8.21;100.00;100370.13;5018622;28;19928;-65
2023/12/21 03:24:33;;;;;;;;;;;;;;;8.23;100.00;100360.19;5013923;28;19924;-65
2023/12/21 03:26:59;;;;;;;;;;;;;;;8.22;100.00;100355.06;5018713;28;19917;-65
2023/12/21 03:29:24;;;;;;;;;;;;;;;8.22;100.00;100355.91;5014680;28;19940;-65
2023/12/21 03:31:50;;;;;;;;;;;;;;;8.17;100.00;100358.22;5012200;28;19924;-65
2023/12/21 03:34:16;;;;;;;;;;;;;;;8.21;100.00;100354.25;5005079;28;20587;-65
2023/12/21 03:36:41;;;;;;;;;;;;;;;8.17;100.00;100339.72;5012576;28;19917;-65
2023/12/21 03:39:07;;;;;;;;;;;;;;;8.16;100.00;100338.06;5018449;28;19936;-64
2023/12/21 03:41:32;;;;;;;;;;;;;;;8.15;100.00;100339.06;5012079;28;19917;-65
2023/12/21 03:43:57;;;;;;;;;;;;;;;8.18;100.00;100338.72;5009484;28;19925;-64
2023/12/21 03:46:23;;;;;;;;;;;;;;;8.18;100.00;100337.91;5011221;28;19925;-64
2023/12/21 03:48:48;;;;;;;;;;;;;;;8.18;100.00;100330.78;5018997;28;19969;-64
2023/12/21 03:51:13;;;;;;;;;;;;;;;8.16;100.00;100334.59;5015100;28;19925;-64
2023/12/21 03:53:38;;;;;;;;;;;;;;;8.18;100.00;100328.13;5014709;28;20558;-65
2023/12/21 03:56:04;;;;;;;;;;;;;;;8.20;100.00;100323.50;5012348;28;20529;-64
2023/12/21 03:58:29;;;;;;;;;;;;;;;8.21;100.00;100309.28;5009911;28;19932;-64
2023/12/21 04:00:54;;;;;;;;;;;;;;;8.22;100.00;100295.06;5012810;28;19917;-64
2023/12/21 04:03:20;;;;;;;;;;;;;;;8.22;100.00;100303.00;5010999;28;20866;-64
2023/12/21 04:05:45;;;;;;;;;;;;;;;8.25;100.00;100307.13;5014187;28;19917;-64
2023/12/21 04:08:10;;;;;;;;;;;;;;;8.27;100.00;100305.97;5005153;28;19929;-65
2023/12/21 04:10:35;;;;;;;;;;;;;;;8.27;100.00;100297.19;5010475;28;19921;-64
2023/12/21 04:13:01;;;;;;;;;;;;;;;8.31;100.00;100286.09;5007236;28;19921;-65
2023/12/21 04:15:26;;;;;;;;;;;;;;;8.31;100.00;100280.81;5013796;28;19921;-64
2023/12/21 04:17:51;;;;;;;;;;;;;;;8.32;100.00;100284.28;5006270;28;19925;-64
2023/12/21 04:20:16;;;;;;;;;;;;;;;8.44;100.00;100263.63;5009067;28;19960;-64
2023/12/21 04:22:41;;;;;;;;;;;;;;;8.40;100.00;100262.31;5011094;28;19916;-64
2023/12/21 04:25:07;;;;;;;;;;;;;;;8.44;100.00;100253.03;5010995;28;19957;-64
2023/12/21 04:27:32;;;;;;;;;;;;;;;8.47;100.00;100265.94;5008853;28;20000;-65
2023/12/21 04:29:57;;;;;;;;;;;;;;;8.51;100.00;100252.19;5007180;28;19927;-64
2023/12/21 04:32:23;;;;;;;;;;;;;;;8.50;100.00;100245.25;5009216;28;20342;-64
2023/12/21 04:34:48;;;;;;;;;;;;;;;8.57;100.00;100235.59;5006742;28;20039;-64
2023/12/21 04:37:13;;;;;;;;;;;;;;;8.63;100.00;100211.09;5009912;28;20358;-64
2023/12/21 04:39:38;;;;;;;;;;;;;;;8.74;100.00;100209.06;5010176;28;20455;-65
2023/12/21 04:42:04;;;;;;;;;;;;;;;8.89;100.00;100224.03;5009529;28;20301;-65
2023/12/21 04:44:29;;;;;;;;;;;;;;;8.88;100.00;100209.13;5010957;28;19925;-64
2023/12/21 04:46:54;;;;;;;;;;;;;;;8.97;100.00;100217.88;5009551;28;19960;-65
2023/12/21 04:49:22;;;;;;;;;;;;;;;8.96;100.00;100206.47;5009713;28;20020;-64
2023/12/21 04:51:47;;;;;;;;;;;;;;;9.05;100.00;100174.63;5011680;28;19975;-64
2023/12/21 04:54:13;;;;;;;;;;;;;;;9.10;100.00;100169.59;5012488;28;19918;-64
2023/12/21 04:56:39;;;;;;;;;;;;;;;9.14;100.00;100171.72;5020776;28;20003;-64
2023/12/21 04:59:04;;;;;;;;;;;;;;;9.19;100.00;100176.47;5011533;28;19988;-64
2023/12/21 05:01:29;;;;;;;;;;;;;;;9.18;100.00;100166.88;5015198;28;20370;-64
2023/12/21 05:03:54;;;;;;;;;;;;;;;9.22;100.00;100129.25;5014098;28;19921;-63
2023/12/21 05:06:20;;;;;;;;;;;;;;;9.24;100.00;100176.75;5017940;28;19921;-63
2023/12/21 05:08:45;;;;;;;;;;;;;;;9.31;100.00;100177.72;5012313;28;19929;-63
2023/12/21 05:11:10;;;;;;;;;;;;;;;9.40;100.00;100170.53;5014806;28;19921;-63
2023/12/21 05:13:35;;;;;;;;;;;;;;;9.38;100.00;100162.75;5012212;28;20016;-62
2023/12/21 05:16:00;;;;;;;;;;;;;;;9.40;100.00;100154.63;5016645;28;19947;-62
2023/12/21 05:18:26;;;;;;;;;;;;;;;9.38;100.00;100162.75;5013556;28;19929;-62
2023/12/21 05:20:51;;;;;;;;;;;;;;;9.30;100.00;100162.81;5011972;28;19964;-63
2023/12/21 05:23:16;;;;;;;;;;;;;;;9.37;100.00;100144.38;5013975;28;19925;-62
2023/12/21 05:25:41;;;;;;;;;;;;;;;9.34;100.00;100142.09;5025032;28;19924;-62
2023/12/21 05:28:07;;;;;;;;;;;;;;;9.36;100.00;100140.09;5011676;28;20008;-62
2023/12/21 05:30:32;;;;;;;;;;;;;;;9.25;100.00;100112.19;5011210;28;19928;-64
2023/12/21 05:32:58;;;;;;;;;;;;;;;9.19;100.00;100116.38;5014278;28;20398;-65
2023/12/21 05:35:24;;;;;;;;;;;;;;;9.31;100.00;100122.91;5018577;28;19933;-64
2023/12/21 05:37:50;;;;;;;;;;;;;;;9.39;100.00;100129.94;5009694;28;19960;-64
2023/12/21 05:40:16;;;;;;;;;;;;;;;9.37;100.00;100115.22;5010059;28;19956;-64
2023/12/21 05:42:41;;;;;;;;;;;;;;;9.27;100.00;100142.81;5006208;28;20314;-64
2023/12/21 05:45:06;;;;;;;;;;;;;;;9.36;100.00;100135.59;5008365;28;19917;-65
2023/12/21 05:47:32;;;;;;;;;;;;;;;9.41;100.00;100109.38;5014429;28;19925;-65
2023/12/21 05:49:57;;;;;;;;;;;;;;;9.49;100.00;100122.53;5011820;28;19925;-64
2023/12/21 05:52:22;;;;;;;;;;;;;;;9.58;100.00;100129.44;5011699;28;19928;-64
2023/12/21 05:54:47;;;;;;;;;;;;;;;9.58;100.00;100137.38;5013969;28;19921;-64
2023/12/21 05:57:13;;;;;;;;;;;;;;;9.60;100.00;100127.41;5012860;28;19928;-64
2023/12/21 05:59:38;;;;;;;;;;;;;;;9.59;100.00;100124.94;5018625;28;20067;-65
2023/12/21 06:02:04;;;;;;;;;;;;;;;9.58;100.00;100137.38;5017265;28;20444;-64
2023/12/21 06:04:30;;;;;;;;;;;;;;;9.54;100.00;100127.31;5016619;28;20397;-64
2023/12/21 06:06:56;;;;;;;;;;;;;;;9.37;100.00;100128.47;5015769;28;19914;-64
2023/12/21 06:09:21;;;;;;;;;;;;;;;9.27;100.00;100103.06;5014150;28;19921;-64
2023/12/21 06:11:46;;;;;;;;;;;;;;;9.12;100.00;100117.28;5011501;28;19964;-64
2023/12/21 06:14:12;;;;;;;;;;;;;;;9.02;100.00;100114.88;5011442;28;19921;-65
2023/12/21 06:16:37;;;;;;;;;;;;;;;8.96;100.00;100091.75;5013171;28;19917;-65
2023/12/21 06:19:09;;;;;;;;;;;;;;;8.87;100.00;100082.22;5016065;28;19925;-65
2023/12/21 06:21:35;;;;;;;;;;;;;;;8.94;100.00;100075.19;5009473;28;19921;-65
2023/12/21 06:24:00;;;;;;;;;;;;;;;8.85;100.00;100085.06;5015294;28;20004;-64
2023/12/21 06:26:26;;;;;;;;;;;;;;;8.82;100.00;100076.66;5017902;28;19925;-64
2023/12/21 06:28:51;;;;;;;;;;;;;;;8.81;100.00;100090.88;5014873;28;19972;-64
2023/12/21 06:31:17;;;;;;;;;;;;;;;8.79;100.00;100064.59;5017824;28;19925;-64
2023/12/21 06:33:43;;;;;;;;;;;;;;;8.76;100.00;100078.19;5011392;28;20019;-64
2023/12/21 06:36:08;;;;;;;;;;;;;;;8.69;100.00;100066.66;5013090;28;20395;-64
2023/12/21 06:38:33;;;;;;;;;;;;;;;8.71;100.00;100059.38;5018364;28;19921;-64
2023/12/21 06:40:59;;;;;;;;;;;;;;;8.72;100.00;100073.44;5014814;28;19928;-64
2023/12/21 06:43:24;;;;;;;;;;;;;;;8.75;100.00;100068.59;5015518;28;19919;-64
2023/12/21 06:45:49;;;;;;;;;;;;;;;8.80;100.00;100052.19;5018104;28;19958;-64
2023/12/21 06:48:15;;;;;;;;;;;;;;;8.75;100.00;100065.94;5015569;28;19925;-64
2023/12/21 06:50:40;;;;;;;;;;;;;;;8.75;100.00;100068.59;5015199;28;19969;-65
2023/12/21 06:53:05;;;;;;;;;;;;;;;8.79;100.00;100043.41;5019969;28;19960;-64
2023/12/21 06:55:30;;;;;;;;;;;;;;;8.75;100.00;100025.41;5013931;28;20020;-64
2023/12/21 06:57:56;;;;;;;;;;;;;;;8.73;100.00;100014.19;5018051;28;20020;-64
2023/12/21 07:00:21;;;;;;;;;;;;;;;8.71;100.00;100010.91;5017940;28;20385;-64
2023/12/21 07:02:46;;;;;;;;;;;;;;;8.70;100.00;99999.50;5014463;28;19917;-64
2023/12/21 07:05:11;;;;;;;;;;;;;;;8.69;100.00;99974.84;5018562;28;20020;-64
2023/12/21 07:07:37;;;;;;;;;;;;;;;8.71;100.00;99979.13;5018072;28;20326;-65
2023/12/21 07:10:02;;;;;;;;;;;;;;;8.65;100.00;100000.00;5015526;28;19959;-64
2023/12/21 07:12:27;;;;;;;;;;;;;;;8.68;100.00;99989.09;5011701;28;20458;-64
2023/12/21 07:14:53;;;;;;;;;;;;;;;8.66;100.00;99971.72;5007198;28;19921;-64
2023/12/21 07:17:18;;;;;;;;;;;;;;;8.72;100.00;99975.50;5014375;28;19972;-64
2023/12/21 07:19:43;;;;;;;;;;;;;;;8.69;100.00;99977.50;5008342;28;19967;-64
2023/12/21 07:22:09;;;;;;;;;;;;;;;8.75;100.00;99952.13;5007097;28;20378;-64
2023/12/21 07:24:34;;;;;;;;;;;;;;;8.76;100.00;99934.41;5011130;28;20420;-64
2023/12/21 07:26:59;;;;;;;;;;;;;;;8.74;100.00;99944.38;5014486;28;20593;-64
2023/12/21 07:29:24;;;;;;;;;;;;;;;8.77;100.00;99944.81;5015367;28;19921;-64
2023/12/21 07:31:50;;;;;;;;;;;;;;;8.85;100.00;99939.44;5011042;28;19928;-64
2023/12/21 07:34:15;;;;;;;;;;;;;;;8.88;100.00;99938.25;5008302;28;19971;-64
2023/12/21 07:36:40;;;;;;;;;;;;;;;8.95;100.00;99945.28;5016724;28;19917;-64
2023/12/21 07:39:05;;;;;;;;;;;;;;;8.90;100.00;99923.00;5011808;28;19929;-65
2023/12/21 07:41:31;;;;;;;;;;;;;;;8.94;100.00;99938.34;5017795;28;19960;-64
2023/12/21 07:43:57;;;;;;;;;;;;;;;8.95;100.00;99929.38;5014018;28;19922;-65
2023/12/21 07:46:23;;;;;;;;;;;;;;;8.94;100.00;99954.22;5017588;28;19921;-65
2023/12/21 07:48:49;;;;;;;;;;;;;;;8.94;100.00;99930.38;5015351;28;19920;-65
2023/12/21 07:51:14;;;;;;;;;;;;;;;8.91;100.00;99920.16;5015107;28;19921;-65
2023/12/21 07:53:39;;;;;;;;;;;;;;;8.93;100.00;99939.34;5013020;28;19921;-66
2023/12/21 07:56:05;;;;;;;;;;;;;;;8.86;100.00;99930.50;5007567;28;20669;-66
2023/12/21 07:58:30;;;;;;;;;;;;;;;8.84;100.00;99895.44;5010250;28;19933;-65
2023/12/21 08:00:55;;;;;;;;;;;;;;;8.85;100.00;99920.91;5008431;28;20440;-66
2023/12/21 08:03:21;;;;;;;;;;;;;;;8.88;100.00;99919.72;5003414;28;20444;-66
2023/12/21 08:05:46;;;;;;;;;;;;;;;8.83;100.00;99899.09;5008239;28;19924;-66
2023/12/21 08:08:11;;;;;;;;;;;;;;;8.82;100.00;99902.72;5005076;28;19914;-66
2023/12/21 08:10:36;;;;;;;;;;;;;;;8.85;100.00;99912.97;5011360;28;20759;-66
2023/12/21 08:13:02;;;;;;;;;;;;;;;8.80;100.00;99899.44;5003333;28;19975;-66
2023/12/21 08:15:27;;;;;;;;;;;;;;;8.85;100.00;99923.56;5009411;28;19952;-66
2023/12/21 08:17:55;;;;;;;;;;;;;;;8.81;100.00;99909.03;5011653;28;20471;-66
2023/12/21 08:20:21;;;;;;;;;;;;;;;8.81;100.00;99916.97;5003779;28;19960;-66
2023/12/21 08:22:46;;;;;;;;;;;;;;;8.87;100.00;99894.25;5006982;28;19951;-66
2023/12/21 08:25:11;;;;;;;;;;;;;;;8.87;100.00;99891.59;5006914;28;19979;-66
2023/12/21 08:27:36;;;;;;;;;;;;;;;8.85;100.00;99885.66;5010885;28;19917;-66
2023/12/21 08:30:02;;;;;;;;;;;;;;;8.92;100.00;99874.16;5015424;28;19948;-66
2023/12/21 08:32:27;;;;;;;;;;;;;;;8.94;100.00;99888.03;5014957;28;20008;-66
2023/12/21 08:34:52;;;;;;;;;;;;;;;8.91;100.00;99875.16;5015614;28;20341;-66
2023/12/21 08:37:18;;;;;;;;;;;;;;;8.90;100.00;99862.91;5012981;28;19921;-67
2023/12/21 08:39:43;;;;;;;;;;;;;;;8.89;100.00;99871.06;5013525;28;19948;-67
2023/12/21 08:42:08;;;;;;;;;;;;;;;8.92;100.00;99854.78;5015014;28;20299;-67
2023/12/21 08:44:37;;;;;;;;;;;;;;;8.93;100.00;99867.84;5014073;28;19936;-67
2023/12/21 08:47:03;;;;;;;;;;;;;;;8.97;100.00;99865.69;5013359;28;19922;-67
2023/12/21 08:49:28;;;;;;;;;;;;;;;9.02;100.00;99828.88;5016802;28;20359;-67
2023/12/21 08:51:53;;;;;;;;;;;;;;;9.00;100.00;99828.22;5014722;28;19975;-67
2023/12/21 08:54:19;;;;;;;;;;;;;;;9.04;100.00;99856.00;5010094;28;20407;-67
2023/12/21 08:56:44;;;;;;;;;;;;;;;9.07;100.00;99852.16;5018779;28;19952;-67
2023/12/21 08:59:10;;;;;;;;;;;;;;;9.07;100.00;99836.25;5015419;28;19925;-67
2023/12/21 09:01:35;;;;;;;;;;;;;;;9.11;100.00;99822.44;5007942;28;20724;-68
2023/12/21 09:04:01;;;;;;;;;;;;;;;9.11;100.00;99842.81;5011394;28;19978;-68
2023/12/21 09:06:27;;;;;;;;;;;;;;;9.18;100.00;99854.31;5013420;28;19983;-67
2023/12/21 09:08:52;;;;;;;;;;;;;;;9.20;100.00;99816.03;5011690;28;19921;-68
2023/12/21 09:11:17;;;;;;;;;;;;;;;9.23;100.00;99806.88;5011066;28;19921;-68
2023/12/21 09:13:42;;;;;;;;;;;;;;;9.30;100.00;99794.56;5016796;28;20032;-68
2023/12/21 09:16:08;;;;;;;;;;;;;;;9.31;100.00;99815.56;5012914;28;20523;-68
2023/12/21 09:18:33;;;;;;;;;;;;;;;9.34;100.00;99827.59;5009824;28;20474;-68
2023/12/21 09:20:58;;;;;;;;;;;;;;;9.36;100.00;99800.91;5012846;28;19932;-68
2023/12/21 09:23:23;;;;;;;;;;;;;;;9.27;100.00;99822.25;5013584;28;19925;-68
2023/12/21 09:25:48;;;;;;;;;;;;;;;9.30;100.00;99821.03;5017507;28;19964;-68
2023/12/21 09:28:14;;;;;;;;;;;;;;;9.35;100.00;99786.84;5012981;28;20414;-68
2023/12/21 09:30:40;;;;;;;;;;;;;;;9.30;100.00;99798.03;5009321;28;19928;-68
2023/12/21 09:33:05;;;;;;;;;;;;;;;9.37;100.00;99795.44;5010463;28;19924;-68
2023/12/21 09:35:31;;;;;;;;;;;;;;;9.45;100.00;99786.53;5009710;28;19920;-68
2023/12/21 09:37:56;;;;;;;;;;;;;;;9.42;100.00;99811.59;5014951;28;20454;-68
2023/12/21 09:40:24;;;;;;;;;;;;;;;9.52;100.00;99801.47;5011960;28;19917;-68
2023/12/21 09:42:50;;;;;;;;;;;;;;;9.54;100.00;99802.16;5010564;28;20469;-68
2023/12/21 09:45:16;;;;;;;;;;;;;;;9.55;100.00;99798.47;5014135;28;19933;-68
2023/12/21 09:47:42;;;;;;;;;;;;;;;9.66;100.00;99760.03;5013551;28;19917;-69
2023/12/21 09:50:08;;;;;;;;;;;;;;;9.73;100.00;99778.63;5006515;28;19975;-68
2023/12/21 09:52:34;;;;;;;;;;;;;;;9.74;100.00;99775.78;5015077;28;19955;-69
2023/12/21 09:55:00;;;;;;;;;;;;;;;9.84;100.00;99770.19;5014435;28;20008;-68
2023/12/21 09:57:25;;;;;;;;;;;;;;;9.96;100.00;99781.88;5014423;28;20008;-69
2023/12/21 09:59:52;;;;;;;;;;;;;;;9.99;100.00;99792.13;5014243;28;20012;-69
2023/12/21 10:02:17;;;;;;;;;;;;;;;10.01;100.00;99790.09;5015266;28;19914;-69
2023/12/21 10:04:43;;;;;;;;;;;;;;;10.01;100.00;99771.53;5012193;28;19921;-69
2023/12/21 10:07:09;;;;;;;;;;;;;;;10.02;100.00;99790.91;5011829;28;19921;-69
2023/12/21 10:09:35;;;;;;;;;;;;;;;10.05;100.00;99748.91;5011936;28;19921;-69
2023/12/21 10:12:00;;;;;;;;;;;;;;;10.18;100.00;99799.41;5010421;28;19925;-69
2023/12/21 10:14:27;;;;;;;;;;;;;;;10.26;100.00;99763.16;5007244;28;19921;-69
2023/12/21 10:16:52;;;;;;;;;;;;;;;10.33;100.00;99774.63;5016234;28;20740;-69
2023/12/21 10:19:18;;;;;;;;;;;;;;;10.30;100.00;99810.31;5010484;28;19952;-69
2023/12/21 10:21:43;;;;;;;;;;;;;;;10.32;100.00;99779.09;5006044;28;20306;-69
2023/12/21 10:24:10;;;;;;;;;;;;;;;10.43;100.00;99810.44;5021192;28;20027;-69
2023/12/21 10:26:43;;;;;;;;;;;;;;;10.48;100.00;99748.78;5011898;28;19921;-68
2023/12/21 10:29:14;;;;;;;;;;;;;;;10.55;100.00;99784.16;5010394;28;20451;-69
2023/12/21 10:31:44;;;;;;;;;;;;;;;10.59;100.00;99764.16;5019881;28;20007;-69
2023/12/21 10:34:09;;;;;;;;;;;;;;;10.65;100.00;99771.31;5013629;28;20036;-70
2023/12/21 10:36:37;;;;;;;;;;;;;;;10.70;100.00;99760.94;5010752;28;20071;-69
2023/12/21 10:39:03;;;;;;;;;;;;;;;10.68;100.00;99733.75;5008531;28;19922;-70
2023/12/21 10:41:29;;;;;;;;;;;;;;;10.71;100.00;99756.47;5016823;28;20338;-69
2023/12/21 10:43:55;;;;;;;;;;;;;;;10.70;100.00;99776.06;5017213;28;20374;-69
2023/12/21 10:46:20;;;;;;;;;;;;;;;10.57;100.00;99755.56;5012299;28;20391;-69
2023/12/21 10:48:46;;;;;;;;;;;;;;;10.44;100.00;99763.47;5009694;28;19917;-69
2023/12/21 10:51:12;;;;;;;;;;;;;;;10.41;100.00;99771.84;5017282;28;19924;-70
2023/12/21 10:53:38;;;;;;;;;;;;;;;10.36;100.00;99764.44;5018510;28;19917;-68
2023/12/21 10:56:04;;;;;;;;;;;;;;;10.32;100.00;99787.06;5017103;28;20012;-69
2023/12/21 10:58:30;;;;;;;;;;;;;;;10.28;100.00;99730.09;5014576;28;20012;-69
2023/12/21 11:00:56;;;;;;;;;;;;;;;10.24;100.00;99742.13;5020660;28;20302;-69
2023/12/21 11:03:21;;;;;;;;;;;;;;;10.23;100.00;99746.59;5015745;28;19921;-68
2023/12/21 11:05:47;;;;;;;;;;;;;;;10.17;100.00;99765.13;5005074;28;20545;-68
2023/12/21 11:08:12;;;;;;;;;;;;;;;10.15;100.00;99737.97;5011777;28;20006;-69
2023/12/21 11:10:37;;;;;;;;;;;;;;;10.08;100.00;99751.16;5016519;28;19957;-68
2023/12/21 11:13:03;;;;;;;;;;;;;;;10.01;100.00;99729.09;5011898;28;19967;-68
2023/12/21 11:15:28;;;;;;;;;;;;;;;9.91;100.00;99718.81;5018560;28;20126;-69
2023/12/21 11:17:59;;;;;;;;;;;;;;;9.87;100.00;99743.28;5017224;28;20313;-68
2023/12/21 11:20:28;;;;;;;;;;;;;;;9.95;100.00;99724.56;5014190;28;19984;-69
2023/12/21 11:22:53;;;;;;;;;;;;;;;10.10;100.00;99712.00;5015019;28;20504;-68
2023/12/21 11:25:22;;;;;;;;;;;;;;;10.30;100.00;99717.44;5016471;28;19926;-69
2023/12/21 11:27:48;;;;;;;;;;;;;;;10.37;100.00;99728.91;5017906;28;20317;-69
2023/12/21 11:30:15;;;;;;;;;;;;;;;10.45;100.00;99691.63;5011624;28;19917;-68
2023/12/21 11:32:40;;;;;;;;;;;;;;;10.49;100.00;99716.75;5010968;28;19925;-68
2023/12/21 11:35:22;;;;;;;;;;;;;;;10.48;100.00;99714.28;5014208;28;19932;-70
2023/12/21 11:37:49;;;;;;;;;;;;;;;10.43;100.00;99714.06;5017271;28;20321;-69
2023/12/21 11:40:16;;;;;;;;;;;;;;;10.41;100.00;99692.22;5013601;28;19928;-69
2023/12/21 11:42:45;;;;;;;;;;;;;;;10.46;100.00;99706.53;5006517;28;20434;-70
2023/12/21 11:45:11;;;;;;;;;;;;;;;10.50;100.00;99710.41;5015535;28;20048;-69
2023/12/21 11:47:37;;;;;;;;;;;;;;;10.51;100.00;99700.63;5018598;28;20417;-69
2023/12/21 11:50:03;;;;;;;;;;;;;;;10.54;100.00;99685.09;5006509;28;19918;-69
2023/12/21 11:52:28;;;;;;;;;;;;;;;10.46;100.00;99679.97;5014739;28;19925;-69
2023/12/21 11:54:54;;;;;;;;;;;;;;;10.37;100.00;99698.91;5016898;28;19925;-68
2023/12/21 11:57:19;;;;;;;;;;;;;;;10.29;100.00;99718.47;5016470;28;19925;-69
2023/12/21 11:59:44;;;;;;;;;;;;;;;10.32;100.00;99702.16;5019599;28;19964;-69
2023/12/21 12:02:13;;;;;;;;;;;;;;;10.44;100.00;99699.78;5015753;28;19982;-69
2023/12/21 12:04:38;;;;;;;;;;;;;;;10.50;100.00;99677.75;5017587;28;20393;-69
2023/12/21 12:07:03;;;;;;;;;;;;;;;10.59;100.00;99686.34;5020401;28;19917;-69
2023/12/21 12:09:29;;;;;;;;;;;;;;;10.71;100.00;99687.44;5026273;28;19935;-69
2023/12/21 12:11:54;;;;;;;;;;;;;;;10.85;100.00;99670.50;5020632;28;19921;-69
2023/12/21 12:14:19;;;;;;;;;;;;;;;10.90;100.00;99667.22;5017452;28;19925;-69
2023/12/21 12:16:46;;;;;;;;;;;;;;;11.04;100.00;99669.72;5017899;28;20432;-69
2023/12/21 12:19:12;;;;;;;;;;;;;;;11.06;100.00;99680.16;5021234;28;20495;-69
2023/12/21 12:21:37;;;;;;;;;;;;;;;10.93;100.00;99672.13;5014687;28;19921;-69
2023/12/21 12:24:03;;;;;;;;;;;;;;;10.93;100.00;99694.19;5011652;28;19928;-70
2023/12/21 12:26:29;;;;;;;;;;;;;;;10.95;100.00;99680.72;5005698;28;20404;-69
2023/12/21 12:28:54;;;;;;;;;;;;;;;10.90;100.00;99670.69;5014843;28;20575;-69